sensor_id;sensor_type;location;lat;lon;timestamp;P1;durP1;ratioP1;P2;durP2;ratioP2
78732;SDS011;68056;52.530;5.454;2024-03-17T00:01:42;4.95;;;3.05;;
78732;SDS011;68056;52.530;5.454;2024-03-17T00:04:08;3.70;;;2.95;;
78732;SDS011;68056;52.530;5.454;2024-03-17T00:06:34;5.00;;;3.25;;
78732;SDS011;68056;52.530;5.454;2024-03-17T00:08:59;3.50;;;2.95;;
78732;SDS011;68056;52.530;5.454;2024-03-17T00:11:31;4.18;;;2.58;;
78732;SDS011;68056;52.530;5.454;2024-03-17T00:14:00;4.68;;;2.63;;
78732;SDS011;68056;52.530;5.454;2024-03-17T00:16:30;5.30;;;3.03;;
78732;SDS011;68056;52.530;5.454;2024-03-17T00:18:55;5.65;;;3.15;;
78732;SDS011;68056;52.530;5.454;2024-03-17T00:21:21;5.03;;;2.78;;
78732;SDS011;68056;52.530;5.454;2024-03-17T00:23:50;3.30;;;2.53;;
78732;SDS011;68056;52.530;5.454;2024-03-17T00:26:16;4.88;;;2.50;;
78732;SDS011;68056;52.530;5.454;2024-03-17T00:28:41;5.05;;;2.83;;
78732;SDS011;68056;52.530;5.454;2024-03-17T00:31:07;4.75;;;3.40;;
78732;SDS011;68056;52.530;5.454;2024-03-17T00:38:26;2.83;;;1.92;;
78732;SDS011;68056;52.530;5.454;2024-03-17T00:40:51;4.32;;;3.00;;
78732;SDS011;68056;52.530;5.454;2024-03-17T00:43:17;2.92;;;2.13;;
78732;SDS011;68056;52.530;5.454;2024-03-17T00:45:43;4.10;;;2.85;;
78732;SDS011;68056;52.530;5.454;2024-03-17T00:48:09;3.92;;;2.35;;
78732;SDS011;68056;52.530;5.454;2024-03-17T00:50:34;3.05;;;2.65;;
78732;SDS011;68056;52.530;5.454;2024-03-17T00:53:00;3.22;;;2.65;;
78732;SDS011;68056;52.530;5.454;2024-03-17T00:55:28;2.83;;;2.50;;
78732;SDS011;68056;52.530;5.454;2024-03-17T00:57:53;3.55;;;2.70;;
78732;SDS011;68056;52.530;5.454;2024-03-17T01:00:19;5.22;;;3.22;;
78732;SDS011;68056;52.530;5.454;2024-03-17T01:02:45;4.20;;;2.47;;
78732;SDS011;68056;52.530;5.454;2024-03-17T01:05:11;4.65;;;2.53;;
78732;SDS011;68056;52.530;5.454;2024-03-17T01:07:37;3.22;;;2.40;;
78732;SDS011;68056;52.530;5.454;2024-03-17T01:10:02;4.30;;;3.10;;
78732;SDS011;68056;52.530;5.454;2024-03-17T01:12:28;6.72;;;3.00;;
78732;SDS011;68056;52.530;5.454;2024-03-17T01:14:54;3.47;;;2.75;;
78732;SDS011;68056;52.530;5.454;2024-03-17T01:17:20;4.13;;;3.38;;
78732;SDS011;68056;52.530;5.454;2024-03-17T01:19:45;3.10;;;2.67;;
78732;SDS011;68056;52.530;5.454;2024-03-17T01:22:17;4.20;;;3.10;;
78732;SDS011;68056;52.530;5.454;2024-03-17T01:24:43;4.05;;;2.80;;
78732;SDS011;68056;52.530;5.454;2024-03-17T01:27:11;4.88;;;2.55;;
78732;SDS011;68056;52.530;5.454;2024-03-17T01:29:39;4.43;;;2.83;;
78732;SDS011;68056;52.530;5.454;2024-03-17T01:32:05;4.38;;;2.55;;
78732;SDS011;68056;52.530;5.454;2024-03-17T01:34:31;3.10;;;2.42;;
78732;SDS011;68056;52.530;5.454;2024-03-17T01:36:56;4.97;;;2.50;;
78732;SDS011;68056;52.530;5.454;2024-03-17T01:39:22;2.45;;;1.75;;
78732;SDS011;68056;52.530;5.454;2024-03-17T01:41:48;3.65;;;2.45;;
78732;SDS011;68056;52.530;5.454;2024-03-17T01:44:28;6.03;;;2.25;;
78732;SDS011;68056;52.530;5.454;2024-03-17T01:46:55;2.30;;;1.83;;
78732;SDS011;68056;52.530;5.454;2024-03-17T01:49:21;3.10;;;2.35;;
78732;SDS011;68056;52.530;5.454;2024-03-17T01:51:51;2.65;;;1.50;;
78732;SDS011;68056;52.530;5.454;2024-03-17T01:54:21;2.42;;;1.60;;
78732;SDS011;68056;52.530;5.454;2024-03-17T01:56:47;2.05;;;1.60;;
78732;SDS011;68056;52.530;5.454;2024-03-17T01:59:15;4.35;;;1.80;;
78732;SDS011;68056;52.530;5.454;2024-03-17T02:01:41;2.03;;;1.25;;
78732;SDS011;68056;52.530;5.454;2024-03-17T02:04:06;2.35;;;1.50;;
78732;SDS011;68056;52.530;5.454;2024-03-17T02:06:32;2.85;;;1.88;;
78732;SDS011;68056;52.530;5.454;2024-03-17T02:08:58;3.53;;;1.98;;
78732;SDS011;68056;52.530;5.454;2024-03-17T02:11:25;2.53;;;1.80;;
78732;SDS011;68056;52.530;5.454;2024-03-17T02:13:58;1.83;;;1.25;;
78732;SDS011;68056;52.530;5.454;2024-03-17T02:16:24;3.00;;;1.55;;
78732;SDS011;68056;52.530;5.454;2024-03-17T02:18:56;4.22;;;1.33;;
78732;SDS011;68056;52.530;5.454;2024-03-17T02:21:23;1.52;;;1.00;;
78732;SDS011;68056;52.530;5.454;2024-03-17T02:23:52;3.55;;;1.48;;
78732;SDS011;68056;52.530;5.454;2024-03-17T02:26:21;2.33;;;1.00;;
78732;SDS011;68056;52.530;5.454;2024-03-17T02:28:48;3.88;;;1.05;;
78732;SDS011;68056;52.530;5.454;2024-03-17T02:31:14;1.55;;;1.17;;
78732;SDS011;68056;52.530;5.454;2024-03-17T02:33:42;3.70;;;1.05;;
78732;SDS011;68056;52.530;5.454;2024-03-17T02:36:08;3.05;;;1.23;;
78732;SDS011;68056;52.530;5.454;2024-03-17T02:38:36;1.52;;;0.93;;
78732;SDS011;68056;52.530;5.454;2024-03-17T02:41:24;3.08;;;1.30;;
78732;SDS011;68056;52.530;5.454;2024-03-17T02:43:52;2.65;;;0.85;;
78732;SDS011;68056;52.530;5.454;2024-03-17T02:46:18;2.38;;;1.08;;
78732;SDS011;68056;52.530;5.454;2024-03-17T02:48:46;3.08;;;1.20;;
78732;SDS011;68056;52.530;5.454;2024-03-17T02:51:17;4.97;;;1.00;;
78732;SDS011;68056;52.530;5.454;2024-03-17T02:53:45;2.38;;;1.08;;
78732;SDS011;68056;52.530;5.454;2024-03-17T02:56:11;3.30;;;1.08;;
78732;SDS011;68056;52.530;5.454;2024-03-17T02:58:38;1.75;;;1.00;;
78732;SDS011;68056;52.530;5.454;2024-03-17T03:01:04;1.55;;;0.90;;
78732;SDS011;68056;52.530;5.454;2024-03-17T03:03:31;3.15;;;0.98;;
78732;SDS011;68056;52.530;5.454;2024-03-17T03:05:57;2.60;;;1.20;;
78732;SDS011;68056;52.530;5.454;2024-03-17T03:08:25;1.02;;;0.95;;
78732;SDS011;68056;52.530;5.454;2024-03-17T03:10:51;0.93;;;0.77;;
78732;SDS011;68056;52.530;5.454;2024-03-17T03:13:17;1.50;;;0.85;;
78732;SDS011;68056;52.530;5.454;2024-03-17T03:15:43;2.88;;;0.88;;
78732;SDS011;68056;52.530;5.454;2024-03-17T03:18:08;3.42;;;1.00;;
78732;SDS011;68056;52.530;5.454;2024-03-17T03:20:34;1.33;;;1.00;;
78732;SDS011;68056;52.530;5.454;2024-03-17T03:23:00;3.17;;;1.15;;
78732;SDS011;68056;52.530;5.454;2024-03-17T03:25:30;1.15;;;0.70;;
78732;SDS011;68056;52.530;5.454;2024-03-17T03:27:56;2.20;;;0.90;;
78732;SDS011;68056;52.530;5.454;2024-03-17T03:30:23;1.75;;;1.02;;
78732;SDS011;68056;52.530;5.454;2024-03-17T03:32:52;2.05;;;0.75;;
78732;SDS011;68056;52.530;5.454;2024-03-17T03:35:18;3.22;;;1.00;;
78732;SDS011;68056;52.530;5.454;2024-03-17T03:37:44;1.58;;;0.60;;
78732;SDS011;68056;52.530;5.454;2024-03-17T03:40:10;1.88;;;1.08;;
78732;SDS011;68056;52.530;5.454;2024-03-17T03:42:42;3.65;;;0.98;;
78732;SDS011;68056;52.530;5.454;2024-03-17T03:45:09;2.45;;;1.10;;
78732;SDS011;68056;52.530;5.454;2024-03-17T03:47:41;1.95;;;0.73;;
78732;SDS011;68056;52.530;5.454;2024-03-17T03:50:08;5.60;;;1.10;;
78732;SDS011;68056;52.530;5.454;2024-03-17T03:52:36;2.35;;;1.10;;
78732;SDS011;68056;52.530;5.454;2024-03-17T03:55:06;1.48;;;1.05;;
78732;SDS011;68056;52.530;5.454;2024-03-17T03:57:35;2.80;;;1.33;;
78732;SDS011;68056;52.530;5.454;2024-03-17T04:00:05;1.20;;;1.10;;
78732;SDS011;68056;52.530;5.454;2024-03-17T04:02:38;1.95;;;0.95;;
78732;SDS011;68056;52.530;5.454;2024-03-17T04:05:05;2.10;;;1.05;;
78732;SDS011;68056;52.530;5.454;2024-03-17T04:07:31;1.67;;;1.05;;
78732;SDS011;68056;52.530;5.454;2024-03-17T04:09:59;3.03;;;0.70;;
78732;SDS011;68056;52.530;5.454;2024-03-17T04:12:25;6.00;;;1.17;;
78732;SDS011;68056;52.530;5.454;2024-03-17T04:14:51;2.05;;;0.82;;
78732;SDS011;68056;52.530;5.454;2024-03-17T04:17:18;2.58;;;1.75;;
78732;SDS011;68056;52.530;5.454;2024-03-17T04:19:46;1.48;;;1.15;;
78732;SDS011;68056;52.530;5.454;2024-03-17T04:22:13;2.95;;;1.35;;
78732;SDS011;68056;52.530;5.454;2024-03-17T04:24:43;3.70;;;1.38;;
78732;SDS011;68056;52.530;5.454;2024-03-17T04:27:09;2.65;;;1.30;;
78732;SDS011;68056;52.530;5.454;2024-03-17T04:29:34;3.22;;;1.33;;
78732;SDS011;68056;52.530;5.454;2024-03-17T04:32:00;2.78;;;1.35;;
78732;SDS011;68056;52.530;5.454;2024-03-17T04:34:26;2.20;;;1.40;;
78732;SDS011;68056;52.530;5.454;2024-03-17T04:36:52;5.20;;;1.80;;
78732;SDS011;68056;52.530;5.454;2024-03-17T04:39:18;4.30;;;1.60;;
78732;SDS011;68056;52.530;5.454;2024-03-17T04:41:44;4.47;;;1.70;;
78732;SDS011;68056;52.530;5.454;2024-03-17T04:44:12;2.67;;;1.17;;
78732;SDS011;68056;52.530;5.454;2024-03-17T04:46:37;2.35;;;1.30;;
78732;SDS011;68056;52.530;5.454;2024-03-17T04:49:03;2.45;;;1.30;;
78732;SDS011;68056;52.530;5.454;2024-03-17T04:51:28;6.60;;;1.40;;
78732;SDS011;68056;52.530;5.454;2024-03-17T04:53:54;2.72;;;1.48;;
78732;SDS011;68056;52.530;5.454;2024-03-17T04:56:23;6.38;;;1.80;;
78732;SDS011;68056;52.530;5.454;2024-03-17T04:58:49;2.40;;;1.55;;
78732;SDS011;68056;52.530;5.454;2024-03-17T05:01:15;2.63;;;1.45;;
78732;SDS011;68056;52.530;5.454;2024-03-17T05:03:40;3.95;;;1.70;;
78732;SDS011;68056;52.530;5.454;2024-03-17T05:06:06;3.88;;;1.52;;
78732;SDS011;68056;52.530;5.454;2024-03-17T05:08:32;2.50;;;1.80;;
78732;SDS011;68056;52.530;5.454;2024-03-17T05:11:02;3.45;;;1.65;;
78732;SDS011;68056;52.530;5.454;2024-03-17T05:13:35;3.25;;;1.80;;
78732;SDS011;68056;52.530;5.454;2024-03-17T05:16:03;1.70;;;1.55;;
78732;SDS011;68056;52.530;5.454;2024-03-17T05:18:29;4.55;;;1.90;;
78732;SDS011;68056;52.530;5.454;2024-03-17T05:23:25;2.40;;;1.88;;
78732;SDS011;68056;52.530;5.454;2024-03-17T05:25:52;2.60;;;1.85;;
78732;SDS011;68056;52.530;5.454;2024-03-17T05:28:17;3.22;;;2.20;;
78732;SDS011;68056;52.530;5.454;2024-03-17T05:30:43;3.90;;;1.77;;
78732;SDS011;68056;52.530;5.454;2024-03-17T05:33:08;3.88;;;1.67;;
78732;SDS011;68056;52.530;5.454;2024-03-17T05:35:35;4.07;;;2.20;;
78732;SDS011;68056;52.530;5.454;2024-03-17T05:38:00;5.80;;;2.53;;
78732;SDS011;68056;52.530;5.454;2024-03-17T05:40:26;5.05;;;2.22;;
78732;SDS011;68056;52.530;5.454;2024-03-17T05:42:52;3.75;;;1.92;;
78732;SDS011;68056;52.530;5.454;2024-03-17T05:45:20;3.85;;;2.47;;
78732;SDS011;68056;52.530;5.454;2024-03-17T05:47:45;5.22;;;2.30;;
78732;SDS011;68056;52.530;5.454;2024-03-17T05:50:11;3.55;;;1.95;;
78732;SDS011;68056;52.530;5.454;2024-03-17T05:52:40;2.35;;;1.85;;
78732;SDS011;68056;52.530;5.454;2024-03-17T05:55:06;4.03;;;2.17;;
78732;SDS011;68056;52.530;5.454;2024-03-17T05:57:32;4.28;;;2.03;;
78732;SDS011;68056;52.530;5.454;2024-03-17T05:59:57;2.97;;;2.05;;
78732;SDS011;68056;52.530;5.454;2024-03-17T06:02:23;3.67;;;2.05;;
78732;SDS011;68056;52.530;5.454;2024-03-17T06:04:48;3.78;;;2.45;;
78732;SDS011;68056;52.530;5.454;2024-03-17T06:07:17;3.17;;;2.47;;
78732;SDS011;68056;52.530;5.454;2024-03-17T06:09:43;3.10;;;1.95;;
78732;SDS011;68056;52.530;5.454;2024-03-17T06:12:12;4.45;;;3.42;;
78732;SDS011;68056;52.530;5.454;2024-03-17T06:14:37;4.32;;;2.40;;
78732;SDS011;68056;52.530;5.454;2024-03-17T06:17:03;4.07;;;2.50;;
78732;SDS011;68056;52.530;5.454;2024-03-17T06:19:30;4.68;;;2.70;;
78732;SDS011;68056;52.530;5.454;2024-03-17T06:21:55;4.30;;;2.60;;
78732;SDS011;68056;52.530;5.454;2024-03-17T06:24:22;3.92;;;2.92;;
78732;SDS011;68056;52.530;5.454;2024-03-17T06:26:50;3.30;;;2.13;;
78732;SDS011;68056;52.530;5.454;2024-03-17T06:29:16;5.63;;;2.50;;
78732;SDS011;68056;52.530;5.454;2024-03-17T06:31:41;5.20;;;2.65;;
78732;SDS011;68056;52.530;5.454;2024-03-17T06:34:07;3.05;;;2.17;;
78732;SDS011;68056;52.530;5.454;2024-03-17T06:36:32;3.88;;;2.58;;
78732;SDS011;68056;52.530;5.454;2024-03-17T06:38:58;3.78;;;2.58;;
78732;SDS011;68056;52.530;5.454;2024-03-17T06:41:23;3.20;;;2.17;;
78732;SDS011;68056;52.530;5.454;2024-03-17T06:43:49;4.35;;;3.00;;
78732;SDS011;68056;52.530;5.454;2024-03-17T06:46:15;4.07;;;3.15;;
78732;SDS011;68056;52.530;5.454;2024-03-17T06:48:41;4.18;;;2.38;;
78732;SDS011;68056;52.530;5.454;2024-03-17T06:51:07;4.55;;;3.03;;
78732;SDS011;68056;52.530;5.454;2024-03-17T06:53:33;6.65;;;3.05;;
78732;SDS011;68056;52.530;5.454;2024-03-17T06:55:59;4.20;;;2.95;;
78732;SDS011;68056;52.530;5.454;2024-03-17T06:58:26;5.05;;;2.70;;
78732;SDS011;68056;52.530;5.454;2024-03-17T07:03:19;5.30;;;3.33;;
78732;SDS011;68056;52.530;5.454;2024-03-17T07:05:50;6.35;;;3.17;;
78732;SDS011;68056;52.530;5.454;2024-03-17T07:08:17;6.35;;;2.70;;
78732;SDS011;68056;52.530;5.454;2024-03-17T07:10:53;4.93;;;3.40;;
78732;SDS011;68056;52.530;5.454;2024-03-17T07:13:28;5.80;;;3.58;;
78732;SDS011;68056;52.530;5.454;2024-03-17T07:15:55;4.22;;;3.22;;
78732;SDS011;68056;52.530;5.454;2024-03-17T07:18:21;7.07;;;3.40;;
78732;SDS011;68056;52.530;5.454;2024-03-17T07:20:46;5.88;;;3.42;;
78732;SDS011;68056;52.530;5.454;2024-03-17T07:23:13;7.32;;;3.38;;
78732;SDS011;68056;52.530;5.454;2024-03-17T07:28:06;3.83;;;3.15;;
78732;SDS011;68056;52.530;5.454;2024-03-17T07:30:31;4.35;;;3.05;;
78732;SDS011;68056;52.530;5.454;2024-03-17T07:32:58;5.25;;;3.72;;
78732;SDS011;68056;52.530;5.454;2024-03-17T07:35:33;6.55;;;3.15;;
78732;SDS011;68056;52.530;5.454;2024-03-17T07:37:59;6.35;;;3.47;;
78732;SDS011;68056;52.530;5.454;2024-03-17T07:40:34;4.68;;;3.63;;
78732;SDS011;68056;52.530;5.454;2024-03-17T07:43:00;4.40;;;3.08;;
78732;SDS011;68056;52.530;5.454;2024-03-17T07:45:25;5.75;;;3.55;;
78732;SDS011;68056;52.530;5.454;2024-03-17T07:47:51;5.07;;;3.45;;
78732;SDS011;68056;52.530;5.454;2024-03-17T07:50:16;4.70;;;3.00;;
78732;SDS011;68056;52.530;5.454;2024-03-17T07:52:42;4.10;;;3.22;;
78732;SDS011;68056;52.530;5.454;2024-03-17T07:55:08;5.45;;;3.63;;
78732;SDS011;68056;52.530;5.454;2024-03-17T07:57:34;4.97;;;3.58;;
78732;SDS011;68056;52.530;5.454;2024-03-17T08:00:06;7.13;;;3.95;;
78732;SDS011;68056;52.530;5.454;2024-03-17T08:02:40;5.55;;;3.60;;
78732;SDS011;68056;52.530;5.454;2024-03-17T08:05:07;5.68;;;3.83;;
78732;SDS011;68056;52.530;5.454;2024-03-17T08:07:33;5.63;;;3.75;;
78732;SDS011;68056;52.530;5.454;2024-03-17T08:09:59;6.53;;;4.05;;
78732;SDS011;68056;52.530;5.454;2024-03-17T08:12:24;5.85;;;3.88;;
78732;SDS011;68056;52.530;5.454;2024-03-17T08:14:50;5.95;;;3.83;;
78732;SDS011;68056;52.530;5.454;2024-03-17T08:17:15;5.15;;;4.07;;
78732;SDS011;68056;52.530;5.454;2024-03-17T08:19:41;7.80;;;4.25;;
78732;SDS011;68056;52.530;5.454;2024-03-17T08:22:13;8.15;;;3.92;;
78732;SDS011;68056;52.530;5.454;2024-03-17T08:24:39;5.78;;;4.07;;
78732;SDS011;68056;52.530;5.454;2024-03-17T08:27:07;5.30;;;3.92;;
78732;SDS011;68056;52.530;5.454;2024-03-17T08:29:32;4.90;;;3.78;;
78732;SDS011;68056;52.530;5.454;2024-03-17T08:32:00;6.18;;;4.57;;
78732;SDS011;68056;52.530;5.454;2024-03-17T08:34:26;5.82;;;3.88;;
78732;SDS011;68056;52.530;5.454;2024-03-17T08:36:52;5.65;;;4.43;;
78732;SDS011;68056;52.530;5.454;2024-03-17T08:39:18;5.05;;;3.65;;
78732;SDS011;68056;52.530;5.454;2024-03-17T08:41:44;5.75;;;3.90;;
78732;SDS011;68056;52.530;5.454;2024-03-17T08:44:10;6.20;;;4.68;;
78732;SDS011;68056;52.530;5.454;2024-03-17T08:46:36;5.60;;;4.22;;
78732;SDS011;68056;52.530;5.454;2024-03-17T08:49:01;5.35;;;4.32;;
78732;SDS011;68056;52.530;5.454;2024-03-17T08:51:27;7.15;;;4.13;;
78732;SDS011;68056;52.530;5.454;2024-03-17T08:53:53;5.05;;;4.15;;
78732;SDS011;68056;52.530;5.454;2024-03-17T08:56:19;4.55;;;3.53;;
78732;SDS011;68056;52.530;5.454;2024-03-17T08:58:45;7.32;;;4.50;;
78732;SDS011;68056;52.530;5.454;2024-03-17T09:01:11;4.70;;;4.05;;
78732;SDS011;68056;52.530;5.454;2024-03-17T09:03:40;4.80;;;3.67;;
78732;SDS011;68056;52.530;5.454;2024-03-17T09:06:15;4.78;;;3.58;;
78732;SDS011;68056;52.530;5.454;2024-03-17T09:08:41;4.82;;;4.10;;
78732;SDS011;68056;52.530;5.454;2024-03-17T09:11:09;4.57;;;3.70;;
78732;SDS011;68056;52.530;5.454;2024-03-17T09:13:37;6.65;;;3.70;;
78732;SDS011;68056;52.530;5.454;2024-03-17T09:16:03;5.47;;;3.60;;
78732;SDS011;68056;52.530;5.454;2024-03-17T09:18:29;4.85;;;3.95;;
78732;SDS011;68056;52.530;5.454;2024-03-17T09:20:57;4.95;;;3.50;;
78732;SDS011;68056;52.530;5.454;2024-03-17T09:23:29;6.15;;;3.75;;
78732;SDS011;68056;52.530;5.454;2024-03-17T09:25:59;4.10;;;3.50;;
78732;SDS011;68056;52.530;5.454;2024-03-17T09:28:27;4.63;;;3.17;;
78732;SDS011;68056;52.530;5.454;2024-03-17T09:30:53;4.85;;;3.60;;
78732;SDS011;68056;52.530;5.454;2024-03-17T09:33:20;5.85;;;4.00;;
78732;SDS011;68056;52.530;5.454;2024-03-17T09:35:53;6.50;;;3.85;;
78732;SDS011;68056;52.530;5.454;2024-03-17T09:38:23;5.90;;;3.40;;
78732;SDS011;68056;52.530;5.454;2024-03-17T09:40:49;5.10;;;3.67;;
78732;SDS011;68056;52.530;5.454;2024-03-17T09:43:20;4.47;;;3.38;;
78732;SDS011;68056;52.530;5.454;2024-03-17T09:45:47;5.10;;;3.45;;
78732;SDS011;68056;52.530;5.454;2024-03-17T09:48:14;4.43;;;3.03;;
78732;SDS011;68056;52.530;5.454;2024-03-17T09:50:42;4.15;;;3.60;;
78732;SDS011;68056;52.530;5.454;2024-03-17T09:53:16;3.15;;;2.83;;
78732;SDS011;68056;52.530;5.454;2024-03-17T09:55:44;4.05;;;3.08;;
78732;SDS011;68056;52.530;5.454;2024-03-17T09:58:14;3.85;;;3.38;;
78732;SDS011;68056;52.530;5.454;2024-03-17T10:00:44;5.30;;;3.10;;
78732;SDS011;68056;52.530;5.454;2024-03-17T10:03:14;4.90;;;3.42;;
78732;SDS011;68056;52.530;5.454;2024-03-17T10:06:05;3.85;;;2.88;;
78732;SDS011;68056;52.530;5.454;2024-03-17T10:08:31;4.60;;;2.70;;
78732;SDS011;68056;52.530;5.454;2024-03-17T10:10:59;3.25;;;2.80;;
78732;SDS011;68056;52.530;5.454;2024-03-17T10:13:24;4.65;;;3.38;;
78732;SDS011;68056;52.530;5.454;2024-03-17T10:15:50;7.63;;;3.03;;
78732;SDS011;68056;52.530;5.454;2024-03-17T10:18:22;6.38;;;2.92;;
78732;SDS011;68056;52.530;5.454;2024-03-17T10:20:48;4.00;;;3.10;;
78732;SDS011;68056;52.530;5.454;2024-03-17T10:23:21;3.17;;;2.42;;
78732;SDS011;68056;52.530;5.454;2024-03-17T10:25:47;4.03;;;2.80;;
78732;SDS011;68056;52.530;5.454;2024-03-17T10:28:17;3.78;;;2.50;;
78732;SDS011;68056;52.530;5.454;2024-03-17T10:30:58;5.00;;;2.58;;
78732;SDS011;68056;52.530;5.454;2024-03-17T10:33:25;3.75;;;2.70;;
78732;SDS011;68056;52.530;5.454;2024-03-17T10:35:57;3.40;;;3.10;;
78732;SDS011;68056;52.530;5.454;2024-03-17T10:38:27;5.68;;;3.05;;
78732;SDS011;68056;52.530;5.454;2024-03-17T10:40:54;6.35;;;3.13;;
78732;SDS011;68056;52.530;5.454;2024-03-17T10:43:23;5.47;;;3.42;;
78732;SDS011;68056;52.530;5.454;2024-03-17T10:45:52;5.65;;;2.60;;
78732;SDS011;68056;52.530;5.454;2024-03-17T10:50:46;2.78;;;2.20;;
78732;SDS011;68056;52.530;5.454;2024-03-17T10:53:14;4.05;;;2.50;;
78732;SDS011;68056;52.530;5.454;2024-03-17T10:55:51;4.07;;;2.60;;
78732;SDS011;68056;52.530;5.454;2024-03-17T10:58:38;4.32;;;2.97;;
78732;SDS011;68056;52.530;5.454;2024-03-17T11:01:15;4.78;;;3.08;;
78732;SDS011;68056;52.530;5.454;2024-03-17T11:06:10;3.15;;;2.30;;
78732;SDS011;68056;52.530;5.454;2024-03-17T11:08:36;3.03;;;2.13;;
78732;SDS011;68056;52.530;5.454;2024-03-17T11:11:02;3.05;;;2.42;;
78732;SDS011;68056;52.530;5.454;2024-03-17T11:13:29;4.15;;;2.70;;
78732;SDS011;68056;52.530;5.454;2024-03-17T11:15:58;4.80;;;2.47;;
78732;SDS011;68056;52.530;5.454;2024-03-17T11:23:27;4.97;;;3.30;;
78732;SDS011;68056;52.530;5.454;2024-03-17T11:31:04;7.22;;;3.70;;
78732;SDS011;68056;52.530;5.454;2024-03-17T11:39:00;4.32;;;3.17;;
78732;SDS011;68056;52.530;5.454;2024-03-17T11:44:44;6.03;;;3.83;;
78732;SDS011;68056;52.530;5.454;2024-03-17T11:47:04;4.75;;;3.50;;
78732;SDS011;68056;52.530;5.454;2024-03-17T11:49:32;7.28;;;3.83;;
78732;SDS011;68056;52.530;5.454;2024-03-17T11:52:13;4.53;;;3.65;;
78732;SDS011;68056;52.530;5.454;2024-03-17T11:54:43;5.60;;;3.58;;
78732;SDS011;68056;52.530;5.454;2024-03-17T11:57:11;4.82;;;3.42;;
78732;SDS011;68056;52.530;5.454;2024-03-17T11:59:38;5.03;;;3.60;;
78732;SDS011;68056;52.530;5.454;2024-03-17T12:04:44;5.50;;;3.70;;
78732;SDS011;68056;52.530;5.454;2024-03-17T12:07:14;5.25;;;3.63;;
78732;SDS011;68056;52.530;5.454;2024-03-17T12:09:41;6.57;;;3.47;;
78732;SDS011;68056;52.530;5.454;2024-03-17T12:12:09;7.25;;;3.17;;
78732;SDS011;68056;52.530;5.454;2024-03-17T12:14:37;4.68;;;3.95;;
78732;SDS011;68056;52.530;5.454;2024-03-17T12:17:10;6.32;;;3.28;;
78732;SDS011;68056;52.530;5.454;2024-03-17T12:22:03;3.30;;;2.75;;
78732;SDS011;68056;52.530;5.454;2024-03-17T12:24:30;7.32;;;2.97;;
78732;SDS011;68056;52.530;5.454;2024-03-17T12:26:58;4.03;;;3.10;;
78732;SDS011;68056;52.530;5.454;2024-03-17T12:32:27;6.00;;;3.58;;
78732;SDS011;68056;52.530;5.454;2024-03-17T12:34:54;5.82;;;3.90;;
78732;SDS011;68056;52.530;5.454;2024-03-17T12:37:21;5.53;;;3.75;;
78732;SDS011;68056;52.530;5.454;2024-03-17T12:39:48;6.45;;;3.55;;
78732;SDS011;68056;52.530;5.454;2024-03-17T12:42:15;4.45;;;3.28;;
78732;SDS011;68056;52.530;5.454;2024-03-17T12:44:53;3.55;;;3.13;;
78732;SDS011;68056;52.530;5.454;2024-03-17T12:47:27;5.75;;;3.55;;
78732;SDS011;68056;52.530;5.454;2024-03-17T12:49:55;5.45;;;3.72;;
78732;SDS011;68056;52.530;5.454;2024-03-17T12:52:23;4.50;;;3.97;;
78732;SDS011;68056;52.530;5.454;2024-03-17T12:55:00;8.73;;;4.40;;
78732;SDS011;68056;52.530;5.454;2024-03-17T12:57:49;8.48;;;4.40;;
78732;SDS011;68056;52.530;5.454;2024-03-17T13:00:59;5.10;;;3.55;;
78732;SDS011;68056;52.530;5.454;2024-03-17T13:03:29;7.78;;;4.00;;
78732;SDS011;68056;52.530;5.454;2024-03-17T13:06:02;6.00;;;4.22;;
78732;SDS011;68056;52.530;5.454;2024-03-17T13:08:31;8.05;;;3.80;;
78732;SDS011;68056;52.530;5.454;2024-03-17T13:10:57;6.05;;;3.80;;
78732;SDS011;68056;52.530;5.454;2024-03-17T13:13:23;6.25;;;4.30;;
78732;SDS011;68056;52.530;5.454;2024-03-17T13:15:55;4.88;;;3.50;;
78732;SDS011;68056;52.530;5.454;2024-03-17T13:18:21;5.90;;;4.50;;
78732;SDS011;68056;52.530;5.454;2024-03-17T13:20:48;4.78;;;4.10;;
78732;SDS011;68056;52.530;5.454;2024-03-17T13:23:14;4.88;;;3.60;;
78732;SDS011;68056;52.530;5.454;2024-03-17T13:25:40;4.57;;;3.78;;
78732;SDS011;68056;52.530;5.454;2024-03-17T13:28:10;4.97;;;4.07;;
78732;SDS011;68056;52.530;5.454;2024-03-17T13:30:36;5.07;;;4.30;;
78732;SDS011;68056;52.530;5.454;2024-03-17T13:33:02;4.88;;;3.72;;
78732;SDS011;68056;52.530;5.454;2024-03-17T13:35:36;4.95;;;4.22;;
78732;SDS011;68056;52.530;5.454;2024-03-17T13:38:06;5.00;;;4.28;;
78732;SDS011;68056;52.530;5.454;2024-03-17T13:40:32;6.03;;;4.13;;
78732;SDS011;68056;52.530;5.454;2024-03-17T13:42:59;6.38;;;3.70;;
78732;SDS011;68056;52.530;5.454;2024-03-17T13:45:26;6.30;;;4.45;;
78732;SDS011;68056;52.530;5.454;2024-03-17T13:47:56;6.47;;;4.50;;
78732;SDS011;68056;52.530;5.454;2024-03-17T13:50:23;3.95;;;3.38;;
78732;SDS011;68056;52.530;5.454;2024-03-17T13:52:48;4.55;;;4.15;;
78732;SDS011;68056;52.530;5.454;2024-03-17T13:55:15;6.47;;;4.50;;
78732;SDS011;68056;52.530;5.454;2024-03-17T13:57:43;4.72;;;3.33;;
78732;SDS011;68056;52.530;5.454;2024-03-17T14:00:10;4.47;;;3.47;;
78732;SDS011;68056;52.530;5.454;2024-03-17T14:02:41;4.00;;;3.40;;
78732;SDS011;68056;52.530;5.454;2024-03-17T14:05:13;4.13;;;3.20;;
78732;SDS011;68056;52.530;5.454;2024-03-17T14:07:41;5.88;;;3.30;;
78732;SDS011;68056;52.530;5.454;2024-03-17T14:10:07;4.35;;;2.80;;
78732;SDS011;68056;52.530;5.454;2024-03-17T14:12:35;3.83;;;3.30;;
78732;SDS011;68056;52.530;5.454;2024-03-17T14:15:07;4.03;;;2.60;;
78732;SDS011;68056;52.530;5.454;2024-03-17T14:17:39;4.20;;;2.53;;
78732;SDS011;68056;52.530;5.454;2024-03-17T14:20:06;5.35;;;3.40;;
78732;SDS011;68056;52.530;5.454;2024-03-17T14:22:38;4.57;;;3.30;;
78732;SDS011;68056;52.530;5.454;2024-03-17T14:25:08;4.78;;;3.28;;
78732;SDS011;68056;52.530;5.454;2024-03-17T14:27:36;4.15;;;2.88;;
78732;SDS011;68056;52.530;5.454;2024-03-17T14:30:02;4.53;;;3.28;;
78732;SDS011;68056;52.530;5.454;2024-03-17T14:32:29;4.22;;;2.85;;
78732;SDS011;68056;52.530;5.454;2024-03-17T14:34:55;3.97;;;3.20;;
78732;SDS011;68056;52.530;5.454;2024-03-17T14:37:21;3.80;;;3.25;;
78732;SDS011;68056;52.530;5.454;2024-03-17T14:39:47;4.75;;;3.03;;
78732;SDS011;68056;52.530;5.454;2024-03-17T14:42:13;4.90;;;3.17;;
78732;SDS011;68056;52.530;5.454;2024-03-17T14:44:39;3.65;;;3.28;;
78732;SDS011;68056;52.530;5.454;2024-03-17T14:47:05;3.45;;;3.05;;
78732;SDS011;68056;52.530;5.454;2024-03-17T14:49:31;5.45;;;3.58;;
78732;SDS011;68056;52.530;5.454;2024-03-17T14:51:58;3.95;;;3.05;;
78732;SDS011;68056;52.530;5.454;2024-03-17T14:54:24;7.07;;;3.85;;
78732;SDS011;68056;52.530;5.454;2024-03-17T14:56:50;6.22;;;3.50;;
78732;SDS011;68056;52.530;5.454;2024-03-17T14:59:16;6.82;;;3.40;;
78732;SDS011;68056;52.530;5.454;2024-03-17T15:01:43;6.15;;;3.08;;
78732;SDS011;68056;52.530;5.454;2024-03-17T15:04:10;3.80;;;3.30;;
78732;SDS011;68056;52.530;5.454;2024-03-17T15:06:36;5.65;;;3.15;;
78732;SDS011;68056;52.530;5.454;2024-03-17T15:09:02;3.30;;;2.80;;
78732;SDS011;68056;52.530;5.454;2024-03-17T15:11:28;4.15;;;2.88;;
78732;SDS011;68056;52.530;5.454;2024-03-17T15:13:54;4.78;;;3.95;;
78732;SDS011;68056;52.530;5.454;2024-03-17T15:16:19;4.97;;;3.47;;
78732;SDS011;68056;52.530;5.454;2024-03-17T15:18:46;5.82;;;3.70;;
78732;SDS011;68056;52.530;5.454;2024-03-17T15:21:12;4.95;;;3.30;;
78732;SDS011;68056;52.530;5.454;2024-03-17T15:23:37;3.97;;;3.28;;
78732;SDS011;68056;52.530;5.454;2024-03-17T15:26:05;5.28;;;3.40;;
78732;SDS011;68056;52.530;5.454;2024-03-17T15:28:34;4.32;;;3.47;;
78732;SDS011;68056;52.530;5.454;2024-03-17T15:31:04;4.95;;;3.25;;
78732;SDS011;68056;52.530;5.454;2024-03-17T15:33:30;7.45;;;3.80;;
78732;SDS011;68056;52.530;5.454;2024-03-17T15:36:00;5.05;;;3.53;;